sensor_id;sensor_type;location;lat;lon;timestamp;pressure;altitude;pressure_sealevel;temperature;humidity
5298;BME280;14738;42.668;23.250;2024-01-25T00:00:15;48604.72;;;-141.90;48.05
5298;BME280;14738;42.668;23.250;2024-01-25T00:02:40;48580.88;;;-141.90;50.17
5298;BME280;14738;42.668;23.250;2024-01-25T00:05:06;48598.75;;;-141.90;50.86
5298;BME280;14738;42.668;23.250;2024-01-25T00:07:32;48572.94;;;-141.90;51.92
5298;BME280;14738;42.668;23.250;2024-01-25T00:09:57;48604.72;;;-141.90;53.07
5298;BME280;14738;42.668;23.250;2024-01-25T00:12:23;48535.22;;;-141.90;53.16
5298;BME280;14738;42.668;23.250;2024-01-25T00:14:48;48588.84;;;-141.90;53.17
5298;BME280;14738;42.668;23.250;2024-01-25T00:17:14;48582.88;;;-141.90;54.16
5298;BME280;14738;42.668;23.250;2024-01-25T00:19:39;48600.75;;;-141.90;54.94
5298;BME280;14738;42.668;23.250;2024-01-25T00:22:06;48549.13;;;-141.90;56.45
5298;BME280;14738;42.668;23.250;2024-01-25T00:24:32;48594.78;;;-141.90;57.51
5298;BME280;14738;42.668;23.250;2024-01-25T00:26:58;48594.78;;;-141.90;58.08
5298;BME280;14738;42.668;23.250;2024-01-25T00:29:23;48604.72;;;-141.90;58.12
5298;BME280;14738;42.668;23.250;2024-01-25T00:31:49;48572.94;;;-141.90;57.78
5298;BME280;14738;42.668;23.250;2024-01-25T00:34:14;48561.03;;;-141.90;57.17
5298;BME280;14738;42.668;23.250;2024-01-25T00:36:40;48578.91;;;-141.90;57.07
5298;BME280;14738;42.668;23.250;2024-01-25T00:39:06;48584.84;;;-141.90;56.65
5298;BME280;14738;42.668;23.250;2024-01-25T00:41:32;48600.75;;;-141.90;56.89
5298;BME280;14738;42.668;23.250;2024-01-25T00:43:58;48592.81;;;-141.90;56.33
5298;BME280;14738;42.668;23.250;2024-01-25T00:46:24;48549.13;;;-141.90;55.02
5298;BME280;14738;42.668;23.250;2024-01-25T00:48:49;48565.00;;;-141.90;54.57
5298;BME280;14738;42.668;23.250;2024-01-25T00:51:20;48582.88;;;-141.90;53.93
5298;BME280;14738;42.668;23.250;2024-01-25T00:53:46;48557.06;;;-141.90;53.88
5298;BME280;14738;42.668;23.250;2024-01-25T00:56:12;48586.84;;;-141.90;54.40
5298;BME280;14738;42.668;23.250;2024-01-25T00:58:37;48580.88;;;-141.90;55.28
5298;BME280;14738;42.668;23.250;2024-01-25T01:01:03;48592.81;;;-141.90;55.95
5298;BME280;14738;42.668;23.250;2024-01-25T01:03:29;48640.44;;;-141.90;55.83
5298;BME280;14738;42.668;23.250;2024-01-25T01:05:55;48592.81;;;-141.90;56.35
5298;BME280;14738;42.668;23.250;2024-01-25T01:08:20;48586.84;;;-141.90;55.69
5298;BME280;14738;42.668;23.250;2024-01-25T01:10:46;48584.84;;;-141.90;55.06
5298;BME280;14738;42.668;23.250;2024-01-25T01:13:11;48580.88;;;-141.90;53.49
5298;BME280;14738;42.668;23.250;2024-01-25T01:15:37;48574.94;;;-141.90;52.11
5298;BME280;14738;42.668;23.250;2024-01-25T01:18:02;48553.09;;;-141.90;51.49
5298;BME280;14738;42.668;23.250;2024-01-25T01:20:30;48509.41;;;-141.90;50.84
5298;BME280;14738;42.668;23.250;2024-01-25T01:22:56;48584.84;;;-141.90;49.96
5298;BME280;14738;42.668;23.250;2024-01-25T01:25:21;48568.97;;;-141.90;49.89
5298;BME280;14738;42.668;23.250;2024-01-25T01:27:47;48563.03;;;-141.90;50.60
5298;BME280;14738;42.668;23.250;2024-01-25T01:30:12;48561.03;;;-141.90;50.78
5298;BME280;14738;42.668;23.250;2024-01-25T01:32:38;48567.00;;;-141.90;50.42
5298;BME280;14738;42.668;23.250;2024-01-25T01:35:04;48549.13;;;-141.90;50.05
5298;BME280;14738;42.668;23.250;2024-01-25T01:37:29;48517.34;;;-141.90;49.55
5298;BME280;14738;42.668;23.250;2024-01-25T01:39:54;48551.09;;;-141.90;48.72
5298;BME280;14738;42.668;23.250;2024-01-25T01:42:21;48555.09;;;-141.90;48.22
5298;BME280;14738;42.668;23.250;2024-01-25T01:44:49;48543.16;;;-141.90;48.22
5298;BME280;14738;42.668;23.250;2024-01-25T01:47:15;48541.19;;;-141.90;48.57
5298;BME280;14738;42.668;23.250;2024-01-25T01:49:41;48541.19;;;-141.90;47.75
5298;BME280;14738;42.668;23.250;2024-01-25T01:52:07;48529.28;;;-141.90;47.25
5298;BME280;14738;42.668;23.250;2024-01-25T01:54:33;48541.19;;;-141.90;46.73
5298;BME280;14738;42.668;23.250;2024-01-25T01:56:59;48499.50;;;-141.90;45.80
5298;BME280;14738;42.668;23.250;2024-01-25T01:59:24;48549.13;;;-141.90;46.97
5298;BME280;14738;42.668;23.250;2024-01-25T02:01:51;48529.28;;;-141.90;48.34
5298;BME280;14738;42.668;23.250;2024-01-25T02:04:17;48521.34;;;-141.90;48.74
5298;BME280;14738;42.668;23.250;2024-01-25T02:06:42;48517.34;;;-141.90;48.79
5298;BME280;14738;42.668;23.250;2024-01-25T02:09:09;48533.25;;;-141.90;49.15
5298;BME280;14738;42.668;23.250;2024-01-25T02:11:35;48545.16;;;-141.90;49.52
5298;BME280;14738;42.668;23.250;2024-01-25T02:14:00;48517.34;;;-141.90;49.65
5298;BME280;14738;42.668;23.250;2024-01-25T02:16:26;48521.34;;;-141.90;50.22
5298;BME280;14738;42.668;23.250;2024-01-25T02:18:51;48545.16;;;-141.90;50.57
5298;BME280;14738;42.668;23.250;2024-01-25T02:21:19;48529.28;;;-141.90;50.34
5298;BME280;14738;42.668;23.250;2024-01-25T02:23:45;48541.19;;;-141.90;50.42
5298;BME280;14738;42.668;23.250;2024-01-25T02:26:10;48519.34;;;-141.90;50.76
5298;BME280;14738;42.668;23.250;2024-01-25T02:28:35;48547.13;;;-141.90;50.89
5298;BME280;14738;42.668;23.250;2024-01-25T02:31:01;48523.31;;;-141.90;50.52
5298;BME280;14738;42.668;23.250;2024-01-25T02:33:27;48509.41;;;-141.90;50.72
5298;BME280;14738;42.668;23.250;2024-01-25T02:35:53;48493.53;;;-141.90;50.50
5298;BME280;14738;42.668;23.250;2024-01-25T02:38:18;48483.59;;;-141.90;50.35
5298;BME280;14738;42.668;23.250;2024-01-25T02:40:43;48507.44;;;-141.90;50.41
5298;BME280;14738;42.668;23.250;2024-01-25T02:43:09;48483.59;;;-141.90;50.29
5298;BME280;14738;42.668;23.250;2024-01-25T02:45:34;48485.59;;;-141.90;50.15
5298;BME280;14738;42.668;23.250;2024-01-25T02:47:59;48529.28;;;-141.90;50.04
5298;BME280;14738;42.668;23.250;2024-01-25T02:50:27;48549.13;;;-141.90;50.33
5298;BME280;14738;42.668;23.250;2024-01-25T02:52:52;48567.00;;;-141.90;50.35
5298;BME280;14738;42.668;23.250;2024-01-25T02:55:21;48549.13;;;-141.90;50.51
5298;BME280;14738;42.668;23.250;2024-01-25T02:57:46;48578.91;;;-141.90;50.68
5298;BME280;14738;42.668;23.250;2024-01-25T03:00:12;48539.19;;;-141.90;50.59
5298;BME280;14738;42.668;23.250;2024-01-25T03:02:38;48576.91;;;-141.90;50.34
5298;BME280;14738;42.668;23.250;2024-01-25T03:05:04;48523.31;;;-141.90;49.96
5298;BME280;14738;42.668;23.250;2024-01-25T03:07:29;48565.00;;;-141.90;50.37
5298;BME280;14738;42.668;23.250;2024-01-25T03:09:54;48533.25;;;-141.90;50.79
5298;BME280;14738;42.668;23.250;2024-01-25T03:12:20;48529.28;;;-141.90;50.64
5298;BME280;14738;42.668;23.250;2024-01-25T03:14:45;48561.03;;;-141.90;50.88
5298;BME280;14738;42.668;23.250;2024-01-25T03:17:11;48565.00;;;-141.90;50.52
5298;BME280;14738;42.668;23.250;2024-01-25T03:19:37;48576.91;;;-141.90;50.91
5298;BME280;14738;42.668;23.250;2024-01-25T03:22:03;48537.22;;;-141.90;51.38
5298;BME280;14738;42.668;23.250;2024-01-25T03:24:28;48543.16;;;-141.90;51.13
5298;BME280;14738;42.668;23.250;2024-01-25T03:26:54;48584.84;;;-141.90;51.63
5298;BME280;14738;42.668;23.250;2024-01-25T03:29:19;48523.31;;;-141.90;51.82
5298;BME280;14738;42.668;23.250;2024-01-25T03:31:45;48549.13;;;-141.90;52.31
5298;BME280;14738;42.668;23.250;2024-01-25T03:34:10;48559.06;;;-141.90;51.30
5298;BME280;14738;42.668;23.250;2024-01-25T03:36:37;48565.00;;;-141.90;51.17
5298;BME280;14738;42.668;23.250;2024-01-25T03:39:03;48553.09;;;-141.90;51.17
5298;BME280;14738;42.668;23.250;2024-01-25T03:41:31;48551.09;;;-141.90;51.08
5298;BME280;14738;42.668;23.250;2024-01-25T03:43:57;48545.16;;;-141.90;51.21
5298;BME280;14738;42.668;23.250;2024-01-25T03:46:22;48563.03;;;-141.90;51.23
5298;BME280;14738;42.668;23.250;2024-01-25T03:48:48;48565.00;;;-141.90;51.21
5298;BME280;14738;42.668;23.250;2024-01-25T03:51:13;48549.13;;;-141.90;50.37
5298;BME280;14738;42.668;23.250;2024-01-25T03:53:38;48545.16;;;-141.90;49.93
5298;BME280;14738;42.668;23.250;2024-01-25T03:56:10;48555.09;;;-141.90;49.88
5298;BME280;14738;42.668;23.250;2024-01-25T03:58:36;48553.09;;;-141.90;49.72
5298;BME280;14738;42.668;23.250;2024-01-25T04:01:02;48537.22;;;-141.90;50.17
5298;BME280;14738;42.668;23.250;2024-01-25T04:03:28;48555.09;;;-141.90;49.56
5298;BME280;14738;42.668;23.250;2024-01-25T04:05:53;48572.94;;;-141.90;49.11
5298;BME280;14738;42.668;23.250;2024-01-25T04:08:19;48539.19;;;-141.90;49.58
5298;BME280;14738;42.668;23.250;2024-01-25T04:10:44;48559.06;;;-141.90;49.91
5298;BME280;14738;42.668;23.250;2024-01-25T04:13:12;48553.09;;;-141.90;49.88
5298;BME280;14738;42.668;23.250;2024-01-25T04:15:37;48559.06;;;-141.90;50.20
5298;BME280;14738;42.668;23.250;2024-01-25T04:18:03;48531.25;;;-141.90;50.04
5298;BME280;14738;42.668;23.250;2024-01-25T04:20:28;48543.16;;;-141.90;50.53
5298;BME280;14738;42.668;23.250;2024-01-25T04:22:53;48557.06;;;-141.90;49.98
5298;BME280;14738;42.668;23.250;2024-01-25T04:25:19;48557.06;;;-141.90;49.83
5298;BME280;14738;42.668;23.250;2024-01-25T04:27:44;48570.97;;;-141.90;49.56
5298;BME280;14738;42.668;23.250;2024-01-25T04:30:10;48557.06;;;-141.90;49.89
5298;BME280;14738;42.668;23.250;2024-01-25T04:32:35;48553.09;;;-141.90;49.96
5298;BME280;14738;42.668;23.250;2024-01-25T04:35:00;48557.06;;;-141.90;49.86
5298;BME280;14738;42.668;23.250;2024-01-25T04:37:26;48557.06;;;-141.90;49.21
5298;BME280;14738;42.668;23.250;2024-01-25T04:39:51;48580.88;;;-141.90;49.30
5298;BME280;14738;42.668;23.250;2024-01-25T04:42:17;48559.06;;;-141.90;49.00
5298;BME280;14738;42.668;23.250;2024-01-25T04:44:43;48565.00;;;-141.90;48.73
5298;BME280;14738;42.668;23.250;2024-01-25T04:47:09;48533.25;;;-141.90;48.45
5298;BME280;14738;42.668;23.250;2024-01-25T04:49:35;48547.13;;;-141.90;48.41
5298;BME280;14738;42.668;23.250;2024-01-25T04:52:00;48523.31;;;-141.90;48.05
5298;BME280;14738;42.668;23.250;2024-01-25T04:54:26;48553.09;;;-141.90;47.70
5298;BME280;14738;42.668;23.250;2024-01-25T04:56:51;48545.16;;;-141.90;47.74
5298;BME280;14738;42.668;23.250;2024-01-25T04:59:16;48549.13;;;-141.90;47.59
5298;BME280;14738;42.668;23.250;2024-01-25T05:01:42;48547.13;;;-141.90;47.29
5298;BME280;14738;42.668;23.250;2024-01-25T05:04:07;48541.19;;;-141.90;47.51
5298;BME280;14738;42.668;23.250;2024-01-25T05:06:33;48568.97;;;-141.90;46.77
5298;BME280;14738;42.668;23.250;2024-01-25T05:08:58;48537.22;;;-141.90;46.17
5298;BME280;14738;42.668;23.250;2024-01-25T05:11:23;48513.38;;;-141.90;46.35
5298;BME280;14738;42.668;23.250;2024-01-25T05:13:49;48535.22;;;-141.90;46.27
5298;BME280;14738;42.668;23.250;2024-01-25T05:16:14;48541.19;;;-141.90;46.54
5298;BME280;14738;42.668;23.250;2024-01-25T05:18:40;48519.34;;;-141.90;46.52
5298;BME280;14738;42.668;23.250;2024-01-25T05:21:05;48561.03;;;-141.90;46.40
5298;BME280;14738;42.668;23.250;2024-01-25T05:23:31;48517.34;;;-141.90;46.45
5298;BME280;14738;42.668;23.250;2024-01-25T05:25:56;48555.09;;;-141.90;46.63
5298;BME280;14738;42.668;23.250;2024-01-25T05:28:22;48557.06;;;-141.90;47.15
5298;BME280;14738;42.668;23.250;2024-01-25T05:30:49;48547.13;;;-141.90;47.15
5298;BME280;14738;42.668;23.250;2024-01-25T05:33:15;48553.09;;;-141.90;47.56
5298;BME280;14738;42.668;23.250;2024-01-25T05:35:40;48537.22;;;-141.90;47.63
5298;BME280;14738;42.668;23.250;2024-01-25T05:38:05;48557.06;;;-141.90;47.44
5298;BME280;14738;42.668;23.250;2024-01-25T05:40:31;48521.34;;;-141.90;47.32
5298;BME280;14738;42.668;23.250;2024-01-25T05:42:56;48588.84;;;-141.90;47.31
5298;BME280;14738;42.668;23.250;2024-01-25T05:45:22;48553.09;;;-141.90;47.11
5298;BME280;14738;42.668;23.250;2024-01-25T05:47:48;48555.09;;;-141.90;47.15
5298;BME280;14738;42.668;23.250;2024-01-25T05:50:14;48561.03;;;-141.90;47.14
5298;BME280;14738;42.668;23.250;2024-01-25T05:52:39;48565.00;;;-141.90;47.63
5298;BME280;14738;42.668;23.250;2024-01-25T05:55:05;48553.09;;;-141.90;47.45
5298;BME280;14738;42.668;23.250;2024-01-25T05:57:34;48565.00;;;-141.90;48.01
5298;BME280;14738;42.668;23.250;2024-01-25T06:00:00;48555.09;;;-141.90;48.12
5298;BME280;14738;42.668;23.250;2024-01-25T06:02:25;48557.06;;;-141.90;48.17
5298;BME280;14738;42.668;23.250;2024-01-25T06:04:51;48553.09;;;-141.90;48.34
5298;BME280;14738;42.668;23.250;2024-01-25T06:07:16;48543.16;;;-141.90;47.90
5298;BME280;14738;42.668;23.250;2024-01-25T06:09:42;48580.88;;;-141.90;48.63
5298;BME280;14738;42.668;23.250;2024-01-25T06:12:07;48565.00;;;-141.90;48.25
5298;BME280;14738;42.668;23.250;2024-01-25T06:14:33;48557.06;;;-141.90;48.62
5298;BME280;14738;42.668;23.250;2024-01-25T06:16:58;48537.22;;;-141.90;48.36
5298;BME280;14738;42.668;23.250;2024-01-25T06:19:23;48537.22;;;-141.90;48.67
5298;BME280;14738;42.668;23.250;2024-01-25T06:21:49;48515.38;;;-141.90;48.27
5298;BME280;14738;42.668;23.250;2024-01-25T06:24:16;48545.16;;;-141.90;48.56
5298;BME280;14738;42.668;23.250;2024-01-25T06:26:41;48547.13;;;-141.90;48.69
5298;BME280;14738;42.668;23.250;2024-01-25T06:29:07;48555.09;;;-141.90;48.68
5298;BME280;14738;42.668;23.250;2024-01-25T06:31:32;48545.16;;;-141.90;48.67
5298;BME280;14738;42.668;23.250;2024-01-25T06:33:57;48572.94;;;-141.90;48.63
5298;BME280;14738;42.668;23.250;2024-01-25T06:36:23;48541.19;;;-141.90;48.66
5298;BME280;14738;42.668;23.250;2024-01-25T06:38:48;48535.22;;;-141.90;48.69
5298;BME280;14738;42.668;23.250;2024-01-25T06:41:14;48525.31;;;-141.90;48.92
5298;BME280;14738;42.668;23.250;2024-01-25T06:43:40;48547.13;;;-141.90;48.77
5298;BME280;14738;42.668;23.250;2024-01-25T06:46:06;48563.03;;;-141.90;48.63
5298;BME280;14738;42.668;23.250;2024-01-25T06:48:32;48561.03;;;-141.90;48.63
5298;BME280;14738;42.668;23.250;2024-01-25T06:50:58;48567.00;;;-141.90;48.88
5298;BME280;14738;42.668;23.250;2024-01-25T06:53:23;48553.09;;;-141.90;48.77
5298;BME280;14738;42.668;23.250;2024-01-25T06:55:48;48529.28;;;-141.90;48.86
5298;BME280;14738;42.668;23.250;2024-01-25T06:58:14;48529.28;;;-141.90;47.86
5298;BME280;14738;42.668;23.250;2024-01-25T07:00:39;48533.25;;;-141.90;47.86
5298;BME280;14738;42.668;23.250;2024-01-25T07:03:07;48517.34;;;-141.90;47.80
5298;BME280;14738;42.668;23.250;2024-01-25T07:05:32;48541.19;;;-141.90;47.87
5298;BME280;14738;42.668;23.250;2024-01-25T07:07:59;48572.94;;;-141.90;47.62
5298;BME280;14738;42.668;23.250;2024-01-25T07:10:24;48549.13;;;-141.90;47.33
5298;BME280;14738;42.668;23.250;2024-01-25T07:12:51;48553.09;;;-141.90;46.76
5298;BME280;14738;42.668;23.250;2024-01-25T07:15:17;48537.22;;;-141.90;46.52
5298;BME280;14738;42.668;23.250;2024-01-25T07:17:43;48543.16;;;-141.90;46.45
5298;BME280;14738;42.668;23.250;2024-01-25T07:20:09;48525.31;;;-141.90;46.59
5298;BME280;14738;42.668;23.250;2024-01-25T07:22:34;48555.09;;;-141.90;46.30
5298;BME280;14738;42.668;23.250;2024-01-25T07:25:00;48545.16;;;-141.90;46.08
5298;BME280;14738;42.668;23.250;2024-01-25T07:27:25;48549.13;;;-141.90;45.77
5298;BME280;14738;42.668;23.250;2024-01-25T07:29:51;48549.13;;;-141.90;46.17
5298;BME280;14738;42.668;23.250;2024-01-25T07:32:18;48517.34;;;-141.90;46.30
5298;BME280;14738;42.668;23.250;2024-01-25T07:34:43;48570.97;;;-141.90;45.86
5298;BME280;14738;42.668;23.250;2024-01-25T07:37:09;48547.13;;;-141.90;46.13
5298;BME280;14738;42.668;23.250;2024-01-25T07:39:36;48545.16;;;-141.90;46.12
5298;BME280;14738;42.668;23.250;2024-01-25T07:42:01;48523.31;;;-141.90;46.03
5298;BME280;14738;42.668;23.250;2024-01-25T07:44:27;48555.09;;;-141.90;45.99
5298;BME280;14738;42.668;23.250;2024-01-25T07:46:52;48551.09;;;-141.90;46.09
5298;BME280;14738;42.668;23.250;2024-01-25T07:49:18;48549.13;;;-141.90;46.20
5298;BME280;14738;42.668;23.250;2024-01-25T07:51:43;48543.16;;;-141.90;45.58
5298;BME280;14738;42.668;23.250;2024-01-25T07:54:08;48531.25;;;-141.90;45.89
5298;BME280;14738;42.668;23.250;2024-01-25T07:56:34;48527.28;;;-141.90;45.60
5298;BME280;14738;42.668;23.250;2024-01-25T07:58:59;48527.28;;;-141.90;45.88
5298;BME280;14738;42.668;23.250;2024-01-25T08:01:25;48545.16;;;-141.90;45.10
5298;BME280;14738;42.668;23.250;2024-01-25T08:03:50;48501.47;;;-141.90;44.57
5298;BME280;14738;42.668;23.250;2024-01-25T08:06:17;48519.34;;;-141.90;44.10
5298;BME280;14738;42.668;23.250;2024-01-25T08:08:43;48517.34;;;-141.90;44.05
5298;BME280;14738;42.668;23.250;2024-01-25T08:11:08;48517.34;;;-141.90;43.62
5298;BME280;14738;42.668;23.250;2024-01-25T08:13:33;48555.09;;;-141.90;43.75
5298;BME280;14738;42.668;23.250;2024-01-25T08:15:59;48545.16;;;-141.90;42.90
5298;BME280;14738;42.668;23.250;2024-01-25T08:18:25;48509.41;;;-141.90;42.82
5298;BME280;14738;42.668;23.250;2024-01-25T08:20:52;48527.28;;;-141.90;43.05
5298;BME280;14738;42.668;23.250;2024-01-25T08:23:17;48521.34;;;-141.90;42.77
5298;BME280;14738;42.668;23.250;2024-01-25T08:25:44;48545.16;;;-141.90;42.57
5298;BME280;14738;42.668;23.250;2024-01-25T08:28:09;48517.34;;;-141.90;42.34
5298;BME280;14738;42.668;23.250;2024-01-25T08:30:35;48523.31;;;-141.90;41.81
5298;BME280;14738;42.668;23.250;2024-01-25T08:33:00;48521.34;;;-141.90;42.31
5298;BME280;14738;42.668;23.250;2024-01-25T08:35:25;48533.25;;;-141.90;42.04
5298;BME280;14738;42.668;23.250;2024-01-25T08:37:51;48533.25;;;-141.90;41.69
5298;BME280;14738;42.668;23.250;2024-01-25T08:40:17;48515.38;;;-141.90;41.49
5298;BME280;14738;42.668;23.250;2024-01-25T08:42:42;48525.31;;;-141.90;42.54
5298;BME280;14738;42.668;23.250;2024-01-25T08:45:07;48539.19;;;-141.90;42.02
5298;BME280;14738;42.668;23.250;2024-01-25T08:47:37;48513.38;;;-141.90;42.06
5298;BME280;14738;42.668;23.250;2024-01-25T08:50:02;48509.41;;;-141.90;41.94
5298;BME280;14738;42.668;23.250;2024-01-25T08:52:29;48497.50;;;-141.90;42.42
5298;BME280;14738;42.668;23.250;2024-01-25T08:54:54;48509.41;;;-141.90;42.24
5298;BME280;14738;42.668;23.250;2024-01-25T08:57:19;48495.53;;;-141.90;41.90
5298;BME280;14738;42.668;23.250;2024-01-25T08:59:45;48509.41;;;-141.90;42.16
5298;BME280;14738;42.668;23.250;2024-01-25T09:02:11;48511.41;;;-141.90;42.19
5298;BME280;14738;42.668;23.250;2024-01-25T09:04:36;48517.34;;;-141.90;41.90
5298;BME280;14738;42.668;23.250;2024-01-25T09:07:02;48499.50;;;-141.90;42.32
5298;BME280;14738;42.668;23.250;2024-01-25T09:09:27;48553.09;;;-141.90;42.73
5298;BME280;14738;42.668;23.250;2024-01-25T09:11:53;48525.31;;;-141.90;42.64
5298;BME280;14738;42.668;23.250;2024-01-25T09:14:19;48533.25;;;-141.90;43.05
5298;BME280;14738;42.668;23.250;2024-01-25T09:16:44;48523.31;;;-141.90;42.79
5298;BME280;14738;42.668;23.250;2024-01-25T09:19:10;48501.47;;;-141.90;42.80
5298;BME280;14738;42.668;23.250;2024-01-25T09:21:38;48533.25;;;-141.90;42.65
5298;BME280;14738;42.668;23.250;2024-01-25T09:24:04;48521.34;;;-141.90;42.10
5298;BME280;14738;42.668;23.250;2024-01-25T09:26:30;48529.28;;;-141.90;41.94
5298;BME280;14738;42.668;23.250;2024-01-25T09:28:55;48511.41;;;-141.90;41.51
5298;BME280;14738;42.668;23.250;2024-01-25T09:31:20;48523.31;;;-141.90;41.54
5298;BME280;14738;42.668;23.250;2024-01-25T09:33:46;48499.50;;;-141.90;41.04
5298;BME280;14738;42.668;23.250;2024-01-25T09:36:11;48493.53;;;-141.90;40.40
5298;BME280;14738;42.668;23.250;2024-01-25T09:38:36;48507.44;;;-141.90;40.25
5298;BME280;14738;42.668;23.250;2024-01-25T09:41:02;48487.56;;;-141.90;40.62
5298;BME280;14738;42.668;23.250;2024-01-25T09:43:27;48529.28;;;-141.90;41.46
5298;BME280;14738;42.668;23.250;2024-01-25T09:45:53;48501.47;;;-141.90;41.80
5298;BME280;14738;42.668;23.250;2024-01-25T09:48:22;48507.44;;;-141.90;41.62
5298;BME280;14738;42.668;23.250;2024-01-25T09:50:48;48511.41;;;-141.90;41.60
5298;BME280;14738;42.668;23.250;2024-01-25T09:53:21;48525.31;;;-141.90;41.58
5298;BME280;14738;42.668;23.250;2024-01-25T09:56:03;48509.41;;;-141.90;41.38
5298;BME280;14738;42.668;23.250;2024-01-25T09:58:41;48517.34;;;-141.90;41.88
5298;BME280;14738;42.668;23.250;2024-01-25T10:01:13;48491.56;;;-141.90;41.28
5298;BME280;14738;42.668;23.250;2024-01-25T10:03:45;48511.41;;;-141.90;40.97
5298;BME280;14738;42.668;23.250;2024-01-25T10:06:15;48509.41;;;-141.90;41.33
5298;BME280;14738;42.668;23.250;2024-01-25T10:08:41;48497.50;;;-141.90;41.04
5298;BME280;14738;42.668;23.250;2024-01-25T10:11:07;48473.69;;;-141.90;41.29
5298;BME280;14738;42.668;23.250;2024-01-25T10:13:46;48531.25;;;-141.90;40.56
5298;BME280;14738;42.668;23.250;2024-01-25T10:16:16;48499.50;;;-141.90;41.14
5298;BME280;14738;42.668;23.250;2024-01-25T10:18:43;48531.25;;;-141.90;40.62
5298;BME280;14738;42.668;23.250;2024-01-25T10:21:13;48493.53;;;-141.90;40.57
5298;BME280;14738;42.668;23.250;2024-01-25T10:23:39;48513.38;;;-141.90;40.82
5298;BME280;14738;42.668;23.250;2024-01-25T10:26:05;48521.34;;;-141.90;40.39
5298;BME280;14738;42.668;23.250;2024-01-25T10:28:30;48499.50;;;-141.90;40.57
5298;BME280;14738;42.668;23.250;2024-01-25T10:31:00;48499.50;;;-141.90;40.29
5298;BME280;14738;42.668;23.250;2024-01-25T10:33:27;48485.59;;;-141.90;40.29
5298;BME280;14738;42.668;23.250;2024-01-25T10:35:58;48485.59;;;-141.90;40.03
5298;BME280;14738;42.668;23.250;2024-01-25T10:38:35;48501.47;;;-141.90;39.86
5298;BME280;14738;42.668;23.250;2024-01-25T10:41:02;48497.50;;;-141.90;39.91
5298;BME280;14738;42.668;23.250;2024-01-25T10:43:28;48509.41;;;-141.90;40.17
5298;BME280;14738;42.668;23.250;2024-01-25T10:45:56;48505.44;;;-141.90;39.97
5298;BME280;14738;42.668;23.250;2024-01-25T10:48:26;48501.47;;;-141.90;39.62
5298;BME280;14738;42.668;23.250;2024-01-25T10:50:53;48479.63;;;-141.90;39.82
5298;BME280;14738;42.668;23.250;2024-01-25T10:53:19;48495.53;;;-141.90;38.94
5298;BME280;14738;42.668;23.250;2024-01-25T10:55:46;48525.31;;;-141.90;38.50
5298;BME280;14738;42.668;23.250;2024-01-25T10:58:13;48499.50;;;-141.90;38.38
5298;BME280;14738;42.668;23.250;2024-01-25T11:00:39;48507.44;;;-141.90;38.92
5298;BME280;14738;42.668;23.250;2024-01-25T11:03:05;48495.53;;;-141.90;39.80
5298;BME280;14738;42.668;23.250;2024-01-25T11:05:31;48513.38;;;-141.90;39.44
5298;BME280;14738;42.668;23.250;2024-01-25T11:07:57;48503.47;;;-141.90;39.06
5298;BME280;14738;42.668;23.250;2024-01-25T11:10:26;48521.34;;;-141.90;39.44
5298;BME280;14738;42.668;23.250;2024-01-25T11:12:57;48527.28;;;-141.90;39.62
5298;BME280;14738;42.668;23.250;2024-01-25T11:15:43;48507.44;;;-141.90;39.32
5298;BME280;14738;42.668;23.250;2024-01-25T11:18:08;48503.47;;;-141.90;39.10
5298;BME280;14738;42.668;23.250;2024-01-25T11:20:36;48491.56;;;-141.90;39.31
5298;BME280;14738;42.668;23.250;2024-01-25T11:23:02;48485.59;;;-141.90;39.37
5298;BME280;14738;42.668;23.250;2024-01-25T11:25:33;48513.38;;;-141.90;39.42
5298;BME280;14738;42.668;23.250;2024-01-25T11:28:00;48531.25;;;-141.90;39.87
5298;BME280;14738;42.668;23.250;2024-01-25T11:30:27;48499.50;;;-141.90;40.39
5298;BME280;14738;42.668;23.250;2024-01-25T11:32:53;48501.47;;;-141.90;40.76
5298;BME280;14738;42.668;23.250;2024-01-25T11:35:18;48533.25;;;-141.90;40.70
5298;BME280;14738;42.668;23.250;2024-01-25T11:37:45;48505.44;;;-141.90;40.79
5298;BME280;14738;42.668;23.250;2024-01-25T11:40:12;48511.41;;;-141.90;40.74
5298;BME280;14738;42.668;23.250;2024-01-25T11:42:39;48561.03;;;-141.90;40.84
5298;BME280;14738;42.668;23.250;2024-01-25T11:45:07;48529.28;;;-141.90;40.69
5298;BME280;14738;42.668;23.250;2024-01-25T11:47:34;48501.47;;;-141.90;40.50
5298;BME280;14738;42.668;23.250;2024-01-25T11:49:59;48525.31;;;-141.90;40.41
5298;BME280;14738;42.668;23.250;2024-01-25T11:52:25;48501.47;;;-141.90;40.79
5298;BME280;14738;42.668;23.250;2024-01-25T11:54:51;48489.56;;;-141.90;40.60
5298;BME280;14738;42.668;23.250;2024-01-25T11:57:17;48491.56;;;-141.90;40.54
5298;BME280;14738;42.668;23.250;2024-01-25T11:59:43;48533.25;;;-141.90;40.62
5298;BME280;14738;42.668;23.250;2024-01-25T12:02:13;48513.38;;;-141.90;40.94
5298;BME280;14738;42.668;23.250;2024-01-25T12:04:39;48469.72;;;-141.90;40.72
5298;BME280;14738;42.668;23.250;2024-01-25T12:07:05;48527.28;;;-141.90;40.78
5298;BME280;14738;42.668;23.250;2024-01-25T12:09:30;48515.38;;;-141.90;40.86
5298;BME280;14738;42.668;23.250;2024-01-25T12:11:55;48521.34;;;-141.90;40.53
5298;BME280;14738;42.668;23.250;2024-01-25T12:14:23;48485.59;;;-141.90;40.73
5298;BME280;14738;42.668;23.250;2024-01-25T12:16:49;48513.38;;;-141.90;41.19
5298;BME280;14738;42.668;23.250;2024-01-25T12:19:15;48481.63;;;-141.90;40.73
5298;BME280;14738;42.668;23.250;2024-01-25T12:21:43;48491.56;;;-141.90;41.11
5298;BME280;14738;42.668;23.250;2024-01-25T12:24:09;48505.44;;;-141.90;41.17
5298;BME280;14738;42.668;23.250;2024-01-25T12:26:35;48513.38;;;-141.90;40.75
5298;BME280;14738;42.668;23.250;2024-01-25T12:29:01;48501.47;;;-141.90;40.72
5298;BME280;14738;42.668;23.250;2024-01-25T12:31:28;48495.53;;;-141.90;40.57
5298;BME280;14738;42.668;23.250;2024-01-25T12:33:53;48503.47;;;-141.90;40.61